Time;durP1;ratioP1;P1;durP2;ratioP2;P2;SDS_P1;SDS_P2;PMS_P1;PMS_P2;Temp;Humidity;BMP_temperature;BMP_pressure;BME280_temperature;BME280_humidity;BME280_pressure;Samples;Min_cycle;Max_cycle;Signal;HPM_P1;HPM_P2
2021/10/01 00:01:33;;;;;;;5.15;3.72;;;11.10;99.90;;;;;;4996853;28;20206;-80
2021/10/01 00:04:00;;;;;;;5.60;3.17;;;11.10;99.90;;;;;;4997111;28;20229;-73
2021/10/01 00:06:28;;;;;;;4.68;2.80;;;11.00;99.90;;;;;;4996634;28;20226;-71
2021/10/01 00:08:55;;;;;;;5.72;3.53;;;11.00;99.90;;;;;;4996868;28;20210;-73
2021/10/01 00:11:22;;;;;;;6.20;3.45;;;11.00;99.90;;;;;;4996672;28;20215;-73
2021/10/01 00:13:49;;;;;;;4.80;3.40;;;11.00;99.90;;;;;;4996783;28;20206;-73
2021/10/01 00:16:17;;;;;;;6.38;3.55;;;11.00;99.90;;;;;;4996766;28;20229;-73
2021/10/01 00:18:44;;;;;;;3.70;2.92;;;11.00;99.90;;;;;;4996746;28;20259;-73
2021/10/01 00:21:11;;;;;;;1.98;1.80;;;10.90;99.90;;;;;;4995865;28;20209;-73
2021/10/01 00:23:39;;;;;;;2.60;1.95;;;11.00;99.90;;;;;;4996557;28;20260;-73
2021/10/01 00:26:06;;;;;;;4.00;2.30;;;10.80;99.90;;;;;;4996571;28;20312;-73
2021/10/01 00:28:33;;;;;;;2.85;2.22;;;10.60;99.90;;;;;;4996353;28;20201;-73
2021/10/01 00:31:00;;;;;;;3.55;2.05;;;10.60;99.90;;;;;;4996176;28;20227;-73
2021/10/01 00:33:27;;;;;;;2.58;1.65;;;10.50;99.90;;;;;;4996291;28;20667;-73
2021/10/01 00:35:54;;;;;;;3.10;2.00;;;10.50;99.90;;;;;;4996503;28;20226;-73
2021/10/01 00:38:20;;;;;;;2.08;1.65;;;10.60;99.90;;;;;;4996511;28;20627;-73
2021/10/01 00:40:49;;;;;;;4.03;2.20;;;10.60;99.90;;;;;;4996283;28;20208;-73
2021/10/01 00:43:15;;;;;;;3.38;2.90;;;10.70;99.90;;;;;;4995917;28;20217;-73
2021/10/01 00:45:42;;;;;;;2.90;2.40;;;10.80;99.90;;;;;;4996066;28;20328;-73
2021/10/01 00:48:09;;;;;;;4.95;2.63;;;10.80;99.90;;;;;;4995895;28;20680;-73
2021/10/01 00:50:36;;;;;;;4.15;2.70;;;10.80;99.90;;;;;;4996143;28;20208;-73
2021/10/01 00:53:04;;;;;;;2.53;2.05;;;10.70;99.90;;;;;;4995998;28;20223;-73
2021/10/01 00:55:31;;;;;;;2.50;2.30;;;10.70;99.90;;;;;;4995998;28;20225;-73
2021/10/01 00:57:59;;;;;;;2.75;2.28;;;10.70;99.90;;;;;;4995909;28;20208;-73
2021/10/01 01:00:27;;;;;;;2.72;2.50;;;10.60;99.90;;;;;;4996002;28;20271;-73
2021/10/01 01:02:56;;;;;;;2.28;2.08;;;10.60;99.90;;;;;;4995340;28;20274;-73
2021/10/01 01:05:30;;;;;;;1.73;1.63;;;10.60;99.90;;;;;;4995862;28;20787;-73
2021/10/01 01:08:02;;;;;;;3.10;2.20;;;10.60;99.90;;;;;;4995848;28;20268;-73
2021/10/01 01:10:37;;;;;;;3.55;2.35;;;10.60;99.90;;;;;;4995762;28;20205;-73
2021/10/01 01:13:14;;;;;;;2.53;1.90;;;10.50;99.90;;;;;;4995589;28;20206;-73
2021/10/01 01:15:47;;;;;;;3.80;2.70;;;10.40;99.90;;;;;;4995672;28;20225;-73
2021/10/01 01:18:18;;;;;;;5.25;2.47;;;10.40;99.90;;;;;;4995690;28;20241;-73
2021/10/01 01:20:50;;;;;;;2.72;2.20;;;10.40;99.90;;;;;;4995645;28;20224;-73
2021/10/01 01:23:32;;;;;;;3.08;2.28;;;10.40;99.90;;;;;;4995334;28;20240;-73
2021/10/01 01:26:08;;;;;;;3.75;2.53;;;10.40;99.90;;;;;;4995242;28;20587;-73
2021/10/01 01:28:58;;;;;;;4.38;3.20;;;10.40;99.90;;;;;;4995414;28;20206;-73
2021/10/01 01:31:35;;;;;;;3.53;2.42;;;10.40;99.90;;;;;;4995124;28;20209;-73
2021/10/01 01:34:03;;;;;;;3.35;2.45;;;10.30;99.90;;;;;;4994477;28;20308;-73
2021/10/01 01:36:31;;;;;;;3.60;2.80;;;10.40;99.90;;;;;;4995236;28;20312;-73
2021/10/01 01:39:00;;;;;;;3.15;2.53;;;10.40;99.90;;;;;;4995231;28;20205;-73
2021/10/01 01:41:30;;;;;;;3.35;3.10;;;10.40;99.90;;;;;;4995019;28;20202;-73
2021/10/01 01:43:57;;;;;;;3.50;2.85;;;10.40;99.90;;;;;;4995089;28;20236;-73
2021/10/01 01:46:25;;;;;;;2.83;2.30;;;10.30;99.90;;;;;;4995015;28;20232;-73
2021/10/01 01:48:53;;;;;;;3.10;2.60;;;10.30;99.90;;;;;;4994976;28;20694;-73
2021/10/01 01:51:23;;;;;;;4.15;2.50;;;10.20;99.90;;;;;;4994862;28;20207;-73
2021/10/01 01:53:50;;;;;;;3.53;2.05;;;10.20;99.90;;;;;;4994992;28;20208;-73
2021/10/01 01:56:19;;;;;;;3.63;2.53;;;10.20;99.90;;;;;;4995089;28;20592;-73
2021/10/01 01:58:47;;;;;;;2.63;2.13;;;10.30;99.90;;;;;;4994842;28;20304;-73
2021/10/01 02:01:14;;;;;;;3.75;3.13;;;10.30;99.90;;;;;;4994635;28;20563;-73
2021/10/01 02:03:42;;;;;;;3.33;2.50;;;10.30;99.90;;;;;;4994734;28;20225;-73
2021/10/01 02:06:09;;;;;;;2.58;2.10;;;10.30;99.90;;;;;;4994731;28;20225;-73
2021/10/01 02:08:38;;;;;;;4.50;2.75;;;10.30;99.90;;;;;;4994696;28;20248;-73
2021/10/01 02:11:05;;;;;;;2.78;2.35;;;10.10;99.90;;;;;;4994459;28;20212;-73
2021/10/01 02:13:34;;;;;;;3.38;2.40;;;10.00;99.90;;;;;;4994583;28;20205;-73
2021/10/01 02:16:02;;;;;;;3.25;2.30;;;10.00;99.90;;;;;;4994298;28;20315;-73
2021/10/01 02:18:31;;;;;;;3.33;2.42;;;10.00;99.90;;;;;;4994465;28;20212;-73
2021/10/01 02:21:00;;;;;;;3.20;2.67;;;10.00;99.90;;;;;;4994579;28;20201;-74
2021/10/01 02:23:27;;;;;;;3.17;2.20;;;10.00;99.90;;;;;;4994637;28;20225;-73
2021/10/01 02:28:46;;;;;;;2.60;2.40;;;10.00;99.90;;;;;;4994348;28;20212;-73
2021/10/01 02:31:20;;;;;;;7.20;2.70;;;10.00;99.90;;;;;;4994167;28;20252;-73
2021/10/01 02:33:49;;;;;;;2.72;2.00;;;10.00;99.90;;;;;;4994296;28;20672;-73
2021/10/01 02:36:16;;;;;;;2.70;2.28;;;10.10;99.90;;;;;;4994304;28;20224;-73
2021/10/01 02:38:43;;;;;;;2.53;2.33;;;10.10;99.90;;;;;;4994287;28;20587;-73
2021/10/01 02:41:11;;;;;;;2.40;1.95;;;10.10;99.90;;;;;;4994058;28;20205;-73
2021/10/01 02:43:38;;;;;;;2.22;1.70;;;10.10;99.90;;;;;;4993780;28;20221;-73
2021/10/01 02:46:05;;;;;;;3.08;1.80;;;10.20;99.90;;;;;;4994220;28;20583;-73
2021/10/01 02:48:32;;;;;;;3.30;1.77;;;10.20;99.90;;;;;;4994116;28;20301;-73
2021/10/01 02:51:03;;;;;;;2.28;2.00;;;10.10;99.90;;;;;;4994096;28;20212;-72
2021/10/01 02:53:32;;;;;;;1.95;1.85;;;10.20;99.90;;;;;;4994232;28;20213;-73
2021/10/01 02:56:06;;;;;;;3.08;2.25;;;10.10;99.90;;;;;;4994164;28;20248;-73
2021/10/01 02:58:39;;;;;;;2.58;1.83;;;10.10;99.90;;;;;;4994179;28;20217;-73
2021/10/01 03:01:10;;;;;;;2.53;1.65;;;10.10;99.90;;;;;;4993920;28;20205;-73
2021/10/01 03:03:40;;;;;;;3.58;2.78;;;10.10;99.90;;;;;;4994026;28;20229;-73
2021/10/01 03:06:08;;;;;;;3.10;2.78;;;10.10;99.90;;;;;;4993757;28;20723;-73
2021/10/01 03:08:37;;;;;;;2.95;2.45;;;10.10;99.90;;;;;;4994006;28;20566;-73
2021/10/01 03:11:10;;;;;;;4.03;2.55;;;10.10;99.90;;;;;;4993856;28;20672;-73
2021/10/01 03:13:41;;;;;;;3.70;3.05;;;10.20;99.90;;;;;;4994052;28;20605;-73
2021/10/01 03:16:09;;;;;;;2.92;2.55;;;10.20;99.90;;;;;;4993710;28;20225;-73
2021/10/01 03:18:36;;;;;;;3.13;2.20;;;10.10;99.90;;;;;;4993934;28;20205;-73
2021/10/01 03:21:04;;;;;;;2.60;1.92;;;10.10;99.90;;;;;;4993751;28;20215;-74
2021/10/01 03:23:31;;;;;;;2.40;1.88;;;9.90;99.90;;;;;;4993860;28;20292;-73
2021/10/01 03:25:59;;;;;;;2.80;2.15;;;9.90;99.90;;;;;;4993760;28;20229;-73
2021/10/01 03:28:25;;;;;;;2.47;1.92;;;9.90;99.90;;;;;;4993859;28;20210;-73
2021/10/01 03:30:54;;;;;;;1.85;1.70;;;10.00;99.90;;;;;;4993720;28;20201;-73
2021/10/01 03:33:24;;;;;;;2.00;1.80;;;9.90;99.90;;;;;;4993446;28;20217;-73
2021/10/01 03:35:52;;;;;;;2.25;2.05;;;9.90;99.90;;;;;;4993526;28;20712;-73
2021/10/01 03:38:19;;;;;;;2.42;1.90;;;9.80;99.90;;;;;;4993837;28;20232;-73
2021/10/01 03:40:47;;;;;;;3.33;2.33;;;9.80;99.90;;;;;;4993648;28;20202;-73
2021/10/01 03:43:15;;;;;;;3.30;1.90;;;9.80;99.90;;;;;;4993522;28;20206;-73
2021/10/01 03:45:42;;;;;;;3.30;2.13;;;9.60;99.90;;;;;;4993618;28;20233;-73
2021/10/01 03:48:11;;;;;;;3.45;2.20;;;9.50;99.90;;;;;;4993364;28;20296;-73
2021/10/01 03:50:38;;;;;;;2.28;1.92;;;9.40;99.90;;;;;;4994077;28;20626;-73
2021/10/01 03:53:05;;;;;;;2.08;1.90;;;9.30;99.90;;;;;;4993488;28;20295;-73
2021/10/01 03:55:32;;;;;;;2.47;2.08;;;9.40;99.90;;;;;;4993611;28;20656;-73
2021/10/01 03:57:59;;;;;;;2.10;1.90;;;9.20;99.90;;;;;;4996821;28;20237;-73
2021/10/01 04:00:26;;;;;;;3.63;2.10;;;9.30;99.90;;;;;;4997077;28;20240;-73
2021/10/01 04:02:53;;;;;;;2.60;2.10;;;9.40;99.90;;;;;;4996949;28;20205;-73
2021/10/01 04:05:21;;;;;;;2.80;2.50;;;9.50;99.90;;;;;;4997232;28;20235;-73
2021/10/01 04:07:48;;;;;;;2.60;2.40;;;9.50;99.90;;;;;;4997567;28;20233;-73
2021/10/01 04:10:15;;;;;;;2.10;1.90;;;9.50;99.90;;;;;;4996995;28;20209;-72
2021/10/01 04:12:42;;;;;;;2.28;2.17;;;9.60;99.90;;;;;;4996712;28;20292;-73
2021/10/01 04:15:09;;;;;;;2.60;2.40;;;9.60;99.90;;;;;;4996578;28;20226;-73
2021/10/01 04:17:36;;;;;;;2.63;2.42;;;9.60;99.90;;;;;;4996534;28;20212;-73
2021/10/01 04:20:03;;;;;;;2.75;2.55;;;9.60;99.90;;;;;;4996640;28;20244;-73
2021/10/01 04:22:32;;;;;;;2.30;2.10;;;9.60;99.90;;;;;;4996377;28;20244;-73
2021/10/01 04:24:59;;;;;;;2.35;2.15;;;9.60;99.90;;;;;;4996582;28;20692;-73
2021/10/01 04:27:26;;;;;;;3.00;2.10;;;9.50;99.90;;;;;;4996861;28;20560;-73
2021/10/01 04:29:52;;;;;;;2.20;2.00;;;9.50;99.90;;;;;;4997088;28;20206;-73
2021/10/01 04:32:19;;;;;;;2.47;2.28;;;9.60;99.90;;;;;;4996525;28;20634;-73
2021/10/01 04:34:59;;;;;;;2.17;1.98;;;9.40;99.90;;;;;;4996716;28;20304;-73
2021/10/01 04:37:26;;;;;;;3.20;2.30;;;9.40;99.90;;;;;;4996616;28;20284;-74
2021/10/01 04:39:54;;;;;;;3.00;2.30;;;9.30;99.90;;;;;;4996763;28;20232;-73
2021/10/01 04:42:22;;;;;;;2.50;2.30;;;9.30;99.90;;;;;;4996530;28;20206;-73
2021/10/01 04:44:48;;;;;;;4.95;2.90;;;9.20;99.90;;;;;;4996523;28;20230;-73
2021/10/01 04:47:15;;;;;;;2.67;2.45;;;9.10;99.90;;;;;;4996901;28;20628;-73
2021/10/01 04:49:42;;;;;;;3.13;2.42;;;9.20;99.90;;;;;;4996485;28;20201;-73
2021/10/01 04:52:09;;;;;;;2.67;1.70;;;9.30;99.90;;;;;;4996492;28;20621;-74
2021/10/01 04:54:37;;;;;;;3.00;2.33;;;9.10;99.90;;;;;;4996110;28;20735;-73
2021/10/01 04:57:07;;;;;;;2.78;1.75;;;9.10;99.90;;;;;;4996506;28;20209;-73
2021/10/01 04:59:34;;;;;;;1.90;1.80;;;9.10;99.90;;;;;;4996359;28;20205;-73
2021/10/01 05:02:01;;;;;;;2.90;2.35;;;9.20;99.90;;;;;;4996063;28;20571;-74
2021/10/01 05:04:28;;;;;;;2.75;2.00;;;9.30;99.90;;;;;;4995862;28;20261;-74
2021/10/01 05:06:54;;;;;;;5.25;2.25;;;9.30;99.90;;;;;;4996235;28;20245;-74
2021/10/01 05:09:21;;;;;;;2.22;2.00;;;9.40;99.90;;;;;;4995957;28;20710;-73
2021/10/01 05:11:48;;;;;;;2.25;2.05;;;9.20;99.90;;;;;;4995918;28;20213;-73
2021/10/01 05:14:16;;;;;;;2.63;2.42;;;9.10;99.90;;;;;;4996142;28;20202;-73
2021/10/01 05:16:45;;;;;;;3.55;2.80;;;8.90;99.90;;;;;;4996243;28;20316;-73
2021/10/01 05:19:11;;;;;;;3.75;2.13;;;8.90;99.90;;;;;;4996188;28;20229;-73
2021/10/01 05:21:38;;;;;;;3.22;2.10;;;8.80;99.90;;;;;;4996178;28;20296;-73
2021/10/01 05:24:05;;;;;;;4.72;2.70;;;8.70;99.90;;;;;;4995619;28;20213;-72
2021/10/01 05:26:32;;;;;;;2.55;2.10;;;8.70;99.90;;;;;;4995536;28;20582;-72
2021/10/01 05:29:00;;;;;;;2.67;2.05;;;8.90;99.90;;;;;;4995510;28;20563;-72
2021/10/01 05:31:29;;;;;;;8.35;2.63;;;8.80;99.90;;;;;;4995169;28;20304;-72
2021/10/01 05:33:56;;;;;;;3.88;3.15;;;8.80;99.90;;;;;;4994996;28;20219;-72
2021/10/01 05:36:23;;;;;;;2.63;2.30;;;8.70;99.90;;;;;;4995306;28;20332;-72
2021/10/01 05:38:50;;;;;;;4.88;2.95;;;8.70;99.90;;;;;;4995268;28;20210;-72
2021/10/01 05:41:17;;;;;;;3.30;2.70;;;8.80;99.90;;;;;;4995040;28;20205;-71
2021/10/01 05:43:44;;;;;;;2.95;2.58;;;8.70;99.90;;;;;;4995185;28;20205;-72
2021/10/01 05:46:11;;;;;;;2.90;2.53;;;8.80;99.90;;;;;;4994847;28;20233;-71
2021/10/01 05:48:42;;;;;;;3.65;3.25;;;8.90;99.90;;;;;;4995130;28;20317;-72
2021/10/01 05:51:10;;;;;;;2.75;2.53;;;9.00;99.90;;;;;;4995255;28;20209;-72
2021/10/01 05:54:00;;;;;;;2.80;2.35;;;8.90;99.90;;;;;;4995158;28;20241;-72
2021/10/01 05:56:28;;;;;;;2.78;2.42;;;8.90;99.90;;;;;;4994954;28;20584;-72
2021/10/01 05:58:55;;;;;;;3.30;2.40;;;8.90;99.90;;;;;;4995025;28;20205;-72
2021/10/01 06:01:21;;;;;;;5.20;2.40;;;8.80;99.90;;;;;;4994548;28;20663;-72
2021/10/01 06:03:51;;;;;;;3.17;2.67;;;8.80;99.90;;;;;;4994871;28;20301;-72
2021/10/01 06:06:18;;;;;;;3.17;2.45;;;8.80;99.90;;;;;;4994829;28;20280;-72
2021/10/01 06:08:45;;;;;;;2.60;2.40;;;8.80;99.90;;;;;;4994669;28;20209;-72
2021/10/01 06:11:12;;;;;;;4.47;3.13;;;8.80;99.90;;;;;;4994562;28;20205;-72
2021/10/01 06:13:39;;;;;;;4.40;3.00;;;8.80;99.90;;;;;;4994739;28;20564;-72
2021/10/01 06:16:06;;;;;;;2.72;2.40;;;8.80;99.90;;;;;;4994447;28;20229;-72
2021/10/01 06:18:33;;;;;;;2.92;2.35;;;8.90;99.90;;;;;;4994244;28;20293;-72
2021/10/01 06:21:02;;;;;;;2.90;2.65;;;9.00;99.90;;;;;;4994499;28;20204;-73
2021/10/01 06:23:34;;;;;;;3.60;2.63;;;8.90;99.90;;;;;;4994639;28;20233;-72
2021/10/01 06:26:01;;;;;;;2.72;2.50;;;8.90;99.90;;;;;;4994640;28;20273;-73
2021/10/01 06:28:27;;;;;;;3.17;2.83;;;8.90;99.90;;;;;;4994548;28;20213;-72
2021/10/01 06:30:55;;;;;;;2.80;2.50;;;8.80;99.90;;;;;;4994427;28;20205;-72
2021/10/01 06:33:22;;;;;;;2.92;2.63;;;8.70;99.90;;;;;;4994110;28;20213;-72
2021/10/01 06:35:49;;;;;;;5.50;3.13;;;8.70;99.90;;;;;;4994309;28;20222;-72
2021/10/01 06:38:18;;;;;;;4.45;3.30;;;8.80;99.90;;;;;;4994291;28;20233;-72
2021/10/01 06:40:44;;;;;;;3.92;3.47;;;8.80;99.90;;;;;;4994086;28;20731;-72
2021/10/01 06:43:14;;;;;;;3.58;3.28;;;9.00;99.90;;;;;;4994154;28;20252;-72
2021/10/01 06:45:42;;;;;;;4.70;4.00;;;9.10;99.90;;;;;;4993984;28;20692;-72
2021/10/01 06:48:20;;;;;;;5.63;3.80;;;9.20;99.90;;;;;;4994338;28;20205;-72
2021/10/01 08:19:14;;;;;;;5.10;4.00;;;11.00;99.90;;;;;;5050083;28;20242;-71
2021/10/01 08:21:41;;;;;;;5.78;3.70;;;11.00;99.90;;;;;;5049786;28;20208;-71
2021/10/01 08:24:08;;;;;;;5.63;4.00;;;11.00;99.90;;;;;;5049863;28;20207;-71
2021/10/01 08:26:35;;;;;;;7.03;4.78;;;11.00;99.90;;;;;;5049590;28;20237;-71
2021/10/01 08:29:01;;;;;;;5.90;4.20;;;11.10;99.90;;;;;;5049865;28;20210;-71
2021/10/01 08:31:30;;;;;;;4.10;3.13;;;11.10;99.90;;;;;;5049576;28;20295;-71
2021/10/01 08:33:57;;;;;;;7.60;3.63;;;11.20;99.90;;;;;;5049759;28;20208;-71
2021/10/01 08:36:24;;;;;;;4.03;3.63;;;11.30;99.90;;;;;;5045810;28;20311;-71
2021/10/01 08:38:52;;;;;;;3.92;3.50;;;11.40;99.90;;;;;;5036372;28;20238;-71
2021/10/01 08:41:19;;;;;;;3.95;3.40;;;11.60;99.90;;;;;;5036098;28;20730;-70
2021/10/01 08:43:46;;;;;;;5.15;3.30;;;11.70;99.90;;;;;;5036339;28;20231;-71
2021/10/01 08:46:15;;;;;;;3.75;3.25;;;11.70;99.90;;;;;;5035837;28;20319;-71
2021/10/01 08:48:43;;;;;;;5.22;3.45;;;11.80;99.90;;;;;;5036233;28;20295;-71
2021/10/01 08:51:12;;;;;;;3.95;3.20;;;11.90;99.90;;;;;;5036009;28;20201;-71
2021/10/01 08:53:40;;;;;;;3.30;3.00;;;12.00;99.90;;;;;;5035858;28;20635;-71
2021/10/01 08:56:07;;;;;;;2.70;2.50;;;12.10;99.90;;;;;;5035769;28;20224;-71
2021/10/01 08:58:34;;;;;;;6.32;2.63;;;12.40;99.90;;;;;;5036071;28;20207;-71
2021/10/01 09:01:02;;;;;;;3.70;2.60;;;12.60;99.90;;;;;;5035827;28;20204;-71
2021/10/01 09:03:30;;;;;;;4.13;2.85;;;12.70;99.90;;;;;;5035783;28;20204;-71
2021/10/01 09:05:58;;;;;;;3.88;3.40;;;12.90;99.90;;;;;;5035536;28;20232;-71
2021/10/01 09:08:26;;;;;;;3.03;2.60;;;13.00;99.90;;;;;;5035886;28;20204;-71
2021/10/01 09:11:02;;;;;;;4.40;3.00;;;13.10;99.90;;;;;;5035843;28;20210;-71
2021/10/01 09:13:30;;;;;;;4.65;2.70;;;13.20;99.90;;;;;;5035995;28;20203;-71
2021/10/01 09:16:02;;;;;;;3.10;2.80;;;13.40;99.90;;;;;;5035885;28;20234;-71
2021/10/01 09:18:29;;;;;;;4.25;3.40;;;13.40;99.90;;;;;;5035833;28;20204;-71
2021/10/01 09:21:09;;;;;;;3.90;3.40;;;13.50;99.90;;;;;;5035611;28;20200;-71
2021/10/01 09:23:41;;;;;;;3.30;3.00;;;13.50;99.90;;;;;;5035653;28;20214;-71
2021/10/01 09:26:10;;;;;;;3.53;3.00;;;13.50;99.90;;;;;;5035162;28;20755;-71
2021/10/01 09:28:51;;;;;;;2.85;2.60;;;13.50;99.90;;;;;;5035296;28;20204;-71
2021/10/01 09:31:38;;;;;;;4.00;3.30;;;13.60;99.90;;;;;;5035249;28;20223;-71
2021/10/01 09:34:06;;;;;;;3.15;2.85;;;13.70;99.90;;;;;;5035441;28;20204;-71
2021/10/01 09:36:35;;;;;;;5.07;3.25;;;13.70;99.90;;;;;;5035020;28;20647;-71
2021/10/01 09:39:03;;;;;;;3.85;3.22;;;13.80;99.90;;;;;;5035306;28;20562;-71
2021/10/01 09:41:35;;;;;;;6.65;3.50;;;13.90;99.90;;;;;;5035023;28;20211;-72
2021/10/01 09:44:08;;;;;;;3.92;3.13;;;13.90;99.90;;;;;;5035262;28;20295;-72
2021/10/01 09:46:41;;;;;;;6.28;3.40;;;14.00;99.90;;;;;;5035123;28;20229;-71
2021/10/01 09:49:09;;;;;;;3.95;3.10;;;14.10;99.90;;;;;;5034039;28;20659;-71
2021/10/01 09:51:39;;;;;;;5.90;2.97;;;14.20;99.90;;;;;;5034827;28;20212;-71
2021/10/01 09:54:11;;;;;;;5.75;2.70;;;14.30;99.90;;;;;;5034949;28;20224;-71
2021/10/01 09:56:39;;;;;;;3.38;2.78;;;14.40;99.90;;;;;;5034902;28;20217;-71
2021/10/01 09:59:15;;;;;;;3.30;2.88;;;14.50;99.90;;;;;;5034957;28;20205;-72
2021/10/01 10:02:06;;;;;;;4.07;3.05;;;14.70;99.90;;;;;;5034730;28;20258;-72
2021/10/01 10:04:35;;;;;;;3.50;3.20;;;15.00;99.90;;;;;;5034469;28;20300;-72
2021/10/01 10:07:25;;;;;;;3.28;2.97;;;15.20;99.90;;;;;;5034748;28;20221;-71
2021/10/01 10:09:54;;;;;;;4.45;2.80;;;15.50;99.90;;;;;;5029343;28;20211;-72
2021/10/01 10:12:23;;;;;;;2.70;2.50;;;15.70;99.90;;;;;;5034218;28;20691;-71
2021/10/01 10:14:53;;;;;;;4.40;3.38;;;15.70;99.90;;;;;;5034450;28;20226;-71
2021/10/01 10:17:23;;;;;;;23.13;8.65;;;15.80;99.90;;;;;;5035474;28;20281;-71
2021/10/01 10:19:51;;;;;;;6.90;2.80;;;15.90;99.90;;;;;;5034517;28;20200;-71
2021/10/01 10:22:20;;;;;;;3.65;2.25;;;15.90;99.90;;;;;;5034306;28;20218;-71
2021/10/01 10:24:49;;;;;;;8.85;3.17;;;16.10;99.90;;;;;;5034178;28;20238;-72
2021/10/01 10:27:16;;;;;;;1.55;1.33;;;16.20;99.90;;;;;;5034363;28;20227;-73
2021/10/01 10:29:45;;;;;;;1.90;1.50;;;16.30;99.90;;;;;;5034021;28;20295;-71
2021/10/01 10:32:16;;;;;;;1.77;1.30;;;16.50;99.90;;;;;;5034113;28;20209;-71
2021/10/01 10:34:52;;;;;;;2.00;1.40;;;16.60;99.90;;;;;;5034131;28;20208;-72
2021/10/01 10:37:19;;;;;;;1.70;1.60;;;16.70;99.90;;;;;;5034264;28;20226;-72
2021/10/01 10:39:50;;;;;;;1.70;1.55;;;16.80;99.90;;;;;;5034057;28;20200;-71
2021/10/01 10:42:35;;;;;;;2.17;1.55;;;16.80;99.90;;;;;;5034014;28;20204;-71
2021/10/01 10:45:10;;;;;;;1.25;1.25;;;16.90;99.90;;;;;;5034086;28;20228;-71
2021/10/01 10:47:45;;;;;;;1.50;1.40;;;17.10;99.90;;;;;;5034189;28;20188;-71
2021/10/01 10:50:36;;;;;;;1.60;1.38;;;17.20;99.90;;;;;;5033962;28;20290;-71
2021/10/01 10:53:16;;;;;;;2.42;1.70;;;17.70;99.90;;;;;;5033803;28;20203;-71
2021/10/01 10:55:53;;;;;;;1.60;1.50;;;18.70;99.40;;;;;;5033862;28;20218;-72
2021/10/01 10:58:51;;;;;;;2.00;1.17;;;19.90;97.60;;;;;;5033669;28;20532;-72
2021/10/01 11:01:33;;;;;;;1.30;1.20;;;20.50;95.60;;;;;;5034050;28;20832;-72
2021/10/01 11:04:40;;;;;;;2.53;1.50;;;21.10;94.00;;;;;;5033883;28;20438;-72
2021/10/01 11:07:09;;;;;;;1.20;1.10;;;21.40;91.20;;;;;;5033720;28;20473;-72
2021/10/01 11:09:38;;;;;;;1.93;1.23;;;22.00;90.60;;;;;;5033505;28;20547;-72
2021/10/01 11:12:25;;;;;;;1.40;1.10;;;22.60;85.90;;;;;;5033383;28;20459;-72
2021/10/01 11:15:20;;;;;;;1.07;1.00;;;23.20;80.20;;;;;;5033064;28;21010;-72
2021/10/01 11:18:17;;;;;;;2.77;1.20;;;23.70;76.80;;;;;;5033625;28;20447;-72
2021/10/01 11:20:44;;;;;;;1.30;1.20;;;24.30;79.20;;;;;;5033650;28;20442;-73
2021/10/01 11:23:18;;;;;;;1.03;1.03;;;24.70;73.10;;;;;;5033407;28;20453;-73
2021/10/01 11:25:45;;;;;;;2.90;2.70;;;24.90;73.30;;;;;;5033099;28;20490;-73
2021/10/01 11:28:14;;;;;;;1.10;1.10;;;25.20;68.60;;;;;;5033510;28;20449;-73
2021/10/01 11:30:47;;;;;;;0.83;0.83;;;25.00;64.90;;;;;;5033480;28;20442;-73
2021/10/01 11:33:14;;;;;;;1.73;1.63;;;24.50;63.90;;;;;;5033356;28;20460;-72
2021/10/01 11:35:54;;;;;;;1.53;1.43;;;23.80;63.30;;;;;;5033351;28;20461;-72
2021/10/01 11:38:23;;;;;;;1.20;1.10;;;23.40;64.00;;;;;;5033416;28;20440;-72
2021/10/01 11:41:02;;;;;;;1.70;1.60;;;23.00;67.10;;;;;;5033287;28;20925;-72
2021/10/01 11:43:30;;;;;;;1.50;1.40;;;22.70;67.50;;;;;;5033261;28;20462;-72
2021/10/01 11:45:57;;;;;;;2.43;1.20;;;22.40;68.50;;;;;;5033068;28;20493;-72
2021/10/01 11:48:34;;;;;;;0.90;0.90;;;22.60;67.20;;;;;;5033371;28;20539;-72
2021/10/01 11:51:01;;;;;;;1.13;1.03;;;23.30;67.00;;;;;;5032920;28;20430;-72
2021/10/01 11:53:34;;;;;;;0.90;0.90;;;24.10;66.30;;;;;;5033289;28;20434;-72
2021/10/01 11:56:03;;;;;;;1.10;1.10;;;25.00;62.90;;;;;;5033304;28;20470;-73
2021/10/01 11:58:33;;;;;;;2.00;1.20;;;25.90;60.50;;;;;;5033249;28;20447;-73
2021/10/01 12:01:09;;;;;;;0.90;0.90;;;26.60;58.80;;;;;;5032990;28;20451;-74
2021/10/01 12:03:36;;;;;;;1.10;1.00;;;26.70;56.40;;;;;;5033189;28;20451;-73
2021/10/01 12:06:03;;;;;;;0.90;0.83;;;27.00;55.80;;;;;;5033082;28;20522;-73
2021/10/01 12:08:34;;;;;;;1.03;1.03;;;26.50;53.00;;;;;;5033173;28;20441;-73
2021/10/01 12:11:02;;;;;;;1.00;0.90;;;26.00;56.30;;;;;;5033031;28;20489;-74
2021/10/01 12:13:33;;;;;;;2.83;0.80;;;26.10;54.50;;;;;;5036547;28;20446;-73
2021/10/01 12:16:02;;;;;;;1.10;1.00;;;26.10;54.50;;;;;;5036603;28;20988;-73
2021/10/01 12:18:32;;;;;;;1.63;1.40;;;25.40;53.40;;;;;;5036810;28;20446;-73
2021/10/01 12:21:02;;;;;;;2.53;2.07;;;24.80;55.90;;;;;;5036598;28;20442;-74
2021/10/01 12:23:31;;;;;;;3.80;3.03;;;24.20;58.30;;;;;;5036621;28;20931;-73
2021/10/01 12:26:26;;;;;;;2.53;2.33;;;23.70;57.40;;;;;;5036160;28;20592;-73
2021/10/01 12:29:07;;;;;;;4.47;3.63;;;23.30;58.00;;;;;;5036443;28;20441;-73
2021/10/01 12:31:39;;;;;;;2.43;2.20;;;22.90;57.00;;;;;;5036393;28;20805;-73
2021/10/01 12:34:08;;;;;;;1.50;1.23;;;22.60;57.10;;;;;;5036562;28;20451;-72
2021/10/01 12:36:37;;;;;;;1.03;1.03;;;22.40;58.30;;;;;;5036351;28;20820;-72
2021/10/01 12:39:05;;;;;;;1.57;1.47;;;22.10;60.50;;;;;;5036525;28;20447;-72
2021/10/01 12:41:31;;;;;;;1.47;1.30;;;22.00;60.90;;;;;;5036296;28;20482;-72
2021/10/01 12:44:00;;;;;;;1.40;1.30;;;21.90;59.60;;;;;;5036429;28;20529;-72
2021/10/01 12:46:36;;;;;;;1.17;1.07;;;21.70;61.90;;;;;;5036111;28;20492;-73
2021/10/01 12:49:14;;;;;;;1.60;1.50;;;21.70;62.00;;;;;;5036420;28;20451;-72
2021/10/01 12:51:41;;;;;;;1.50;1.40;;;21.70;60.90;;;;;;5036143;28;20451;-73
2021/10/01 12:54:24;;;;;;;2.20;1.40;;;21.60;62.40;;;;;;5036171;28;20454;-73
2021/10/01 12:57:14;;;;;;;1.40;1.30;;;21.50;62.40;;;;;;5036151;28;20470;-72
2021/10/01 12:59:43;;;;;;;1.23;1.10;;;21.50;66.60;;;;;;5036097;28;20457;-72
2021/10/01 13:02:13;;;;;;;1.73;1.20;;;21.40;67.60;;;;;;5035647;28;20529;-73
2021/10/01 13:04:49;;;;;;;1.40;1.30;;;21.30;67.70;;;;;;5035760;28;20537;-72
2021/10/01 13:07:24;;;;;;;1.40;1.30;;;21.30;66.50;;;;;;5036108;28;20478;-72
2021/10/01 13:09:51;;;;;;;2.00;1.33;;;21.30;66.40;;;;;;5035816;28;20532;-72
2021/10/01 13:12:37;;;;;;;1.20;1.10;;;21.30;65.10;;;;;;5035422;28;20529;-72
2021/10/01 13:15:25;;;;;;;1.27;1.17;;;21.40;63.40;;;;;;5035685;28;20473;-72
2021/10/01 13:18:05;;;;;;;1.67;1.57;;;21.40;67.50;;;;;;5035811;28;20431;-73
2021/10/01 13:20:34;;;;;;;2.53;1.60;;;21.40;61.10;;;;;;5035652;28;20451;-72
2021/10/01 13:23:03;;;;;;;1.70;1.60;;;21.50;60.60;;;;;;5035383;28;20530;-72
2021/10/01 13:25:32;;;;;;;1.80;1.47;;;21.60;62.10;;;;;;5035207;28;20478;-72
2021/10/01 13:28:01;;;;;;;1.43;1.33;;;21.60;66.30;;;;;;5035542;28;20486;-73
2021/10/01 13:30:28;;;;;;;1.40;1.30;;;21.70;67.70;;;;;;5035445;28;20451;-72
2021/10/01 13:32:56;;;;;;;1.93;1.60;;;21.60;62.70;;;;;;5035048;28;20453;-72
2021/10/01 13:35:26;;;;;;;1.70;1.40;;;21.70;65.40;;;;;;5035060;28;21004;-73
2021/10/01 13:37:53;;;;;;;1.37;1.30;;;21.70;66.00;;;;;;5035142;28;20438;-72
2021/10/01 13:40:20;;;;;;;2.70;1.70;;;21.70;64.90;;;;;;5035313;28;20871;-73
2021/10/01 13:42:47;;;;;;;1.63;1.20;;;21.70;67.90;;;;;;5035091;28;20529;-73
2021/10/01 13:45:14;;;;;;;1.70;1.60;;;21.60;64.70;;;;;;5034988;28;20980;-72
2021/10/01 13:47:42;;;;;;;1.80;1.40;;;21.70;66.70;;;;;;5035172;28;20894;-73
2021/10/01 13:50:10;;;;;;;1.67;1.57;;;21.70;68.30;;;;;;5035111;28;20530;-73
2021/10/01 13:52:39;;;;;;;2.50;1.87;;;21.70;69.40;;;;;;5034880;28;20443;-72
2021/10/01 13:55:08;;;;;;;1.50;1.40;;;21.70;71.50;;;;;;5034738;28;20481;-73
2021/10/01 13:57:34;;;;;;;2.50;1.67;;;21.70;70.10;;;;;;5035072;28;20449;-73
2021/10/01 14:00:02;;;;;;;1.73;1.60;;;21.70;70.40;;;;;;5034835;28;20446;-72
2021/10/01 14:02:29;;;;;;;3.27;1.63;;;21.70;69.30;;;;;;5034664;28;20537;-72
2021/10/01 14:04:56;;;;;;;2.00;1.80;;;21.70;70.20;;;;;;5034720;28;20476;-72
2021/10/01 14:07:23;;;;;;;1.90;1.80;;;21.60;71.80;;;;;;5034766;28;20586;-72
2021/10/01 14:09:51;;;;;;;2.23;2.03;;;21.60;74.80;;;;;;5034707;28;20534;-72
2021/10/01 14:12:18;;;;;;;1.87;1.77;;;21.60;73.30;;;;;;5034184;28;20970;-73
2021/10/01 14:14:45;;;;;;;2.77;2.00;;;21.60;74.50;;;;;;5034297;28;20482;-73
2021/10/01 14:17:12;;;;;;;1.63;1.53;;;21.60;76.70;;;;;;5034639;28;20529;-72
2021/10/01 14:19:38;;;;;;;2.60;1.93;;;21.60;76.90;;;;;;5034549;28;20454;-72
2021/10/01 14:22:05;;;;;;;2.67;1.90;;;21.70;78.50;;;;;;5034076;28;20940;-72
2021/10/01 14:24:37;;;;;;;1.73;1.63;;;21.70;77.60;;;;;;5034160;28;20526;-72
2021/10/01 14:27:06;;;;;;;2.00;1.80;;;21.70;78.30;;;;;;5034363;28;20501;-73
2021/10/01 14:29:33;;;;;;;2.70;2.27;;;21.70;77.00;;;;;;5034325;28;20537;-72
2021/10/01 14:32:00;;;;;;;2.97;2.40;;;21.70;77.40;;;;;;5034129;28;20541;-72
2021/10/01 14:34:27;;;;;;;2.60;2.33;;;21.70;79.40;;;;;;5033612;28;20450;-72
2021/10/01 14:36:54;;;;;;;2.40;2.10;;;21.70;79.60;;;;;;5034252;28;20436;-73